Aktualne dane pomiarowe

Uwaga, wersja testowa! Automatyczne pobieranie danych za pomocą narzędzi lub skryptów to umożliwiających jest zabronione.

Dane meteo z obszaru Polski uzyskane na podstawie depesz SYNOP pobieranych co godzinę z NWS. Najedź myszką na symbol przedstawiony w tabeli, aby uzyskać informacje co do jego znaczenia. Prosimy pamiętać, że to testowa wersja strony, która jeszcze nie jest ukończona. Stworzono również jest krótki FAQ dotyczący korzystania z tej podstrony Anomalie temperatury w chwili obecnej odniesione są do okresu referencyjnego 1951-2016. Okres ten będzie później zmieniony na 1981-2010. Kliknij ikonę aby pobrać plik CSV. Kliknij ikonę aby wygenerować mapę synoptyczną dla danego terminu.

Wybierz Datę:    

        

Bielsko-Biała (12600)

Dane terminowe dla wybranej stacji. Kliknij datę, aby otrzymać dane z tego terminu dla wszystkich stacji.

TemperaturaZachmurzenieWiatrCiśnienieOpadyPogoda
 Data t td wb tx tn tg rh  Nt Nl Cl Cm Ch ws wd g1 g2 wx mslp ppp ch 24h 12h t ww ww w1 w2  
2019-09-22 23:00:00 9.4 6.5 7.6--- 8230.0wx-4wx--41016.2 968.3 -0.5---------
2019-09-22 22:00:00 10.1 6.8 8.0--- 8040.0wx-4wx--41016.0 968.2 -0.8---------
2019-09-22 21:00:00 10.2 6.2 7.8--- 7640.0wx-2wx--21016.4 968.6 -0.3---------
2019-09-22 20:00:00 10.5 6.8 8.2--- 7850.0wx-1wx--11016.6 968.8 0.0---------
2019-09-22 19:00:00 10.6 7.1 8.4--- 7950.0wx-1wx--11016.8 969.0 0.1---------
2019-09-22 18:00:00 11.2 7.1 8.7 19.6 10.1- 7650.0wx-4wx--41016.6 968.9 0.0- 0.012------
2019-09-22 17:00:00 12.9 9.3 10.6--- 7950.0wx-wx2wx--21016.2 968.8 -0.3---------
2019-09-22 16:00:00 17.7 9.6 12.8--- 5950.0wx-wx1wx--11015.5 968.9 -0.9---------
2019-09-22 15:00:00 19.0 8.6 13.0--- 5150.0wx-1wx--11015.3 968.9 -1.6---------
2019-09-22 14:00:00 19.2 7.6 12.6--- 4750.0wx-1wx--11015.4 969.1 -2.2---------
2019-09-22 13:00:00 19.4 8.1 12.9--- 4850.0wx-1wx--11016.1 969.8 -2.3---------
2019-09-22 12:00:00 18.6 6.4 11.8--- 4550.0wx-2wx--21017.0 970.5 -2.2- 0.06------
2019-09-22 11:00:00 18.4 6.2 11.7--- 4550.0wx-2wx--21017.9 971.3 -1.7---------
2019-09-22 10:00:00 17.5 7.2 11.7--- 5150.0wx-1wx--11018.9 972.1 -1.0---------
2019-09-22 09:00:00 16.3 5.3 10.3--- 4850.0wx-2wx--21019.7 972.7 -0.4---------
2019-09-22 08:00:00 14.8 5.3 9.6--- 5350.0wx-1wx--11020.3 973.0 -0.3---------
2019-09-22 07:00:00 12.5 5.6 8.6--- 6340.0wx-2wx---1020.8 973.1 -0.3---------
2019-09-22 06:00:00 10.1 5.5 7.4 13.4 6.5 4 7350.0wx-2wx--21021.2 973.1 -0.5- 0.012----- 11.3
2019-09-22 05:00:00 7.7 4.1 5.5--- 7840.0wx-2wx--21021.8 973.3 -0.7---------
2019-09-22 04:00:00 7.6 4.0 5.4--- 7840.0wx-3wx--31021.9 973.4 -0.7---------
2019-09-22 03:00:00 7.2 3.6 5.0--- 7820.0wx-3wx--31022.2 973.6 -0.9---------
2019-09-22 02:00:00 7.2 3.8 5.1--- 7930.0wx-3wx--31022.6 974.0 -0.7---------
2019-09-22 01:00:00 8.0 4.4 5.8--- 7830.0wx-3wx--31022.6 974.1 -1.1---------
2019-09-22 00:00:00 8.4 4.6 6.1--- 7730.0wx-3wx--31022.9 974.5 -0.8- 0.06------
2019-09-21 23:00:00 8.5 4.9 6.3--- 7830.0wx-3wx--31023.1 974.7 -1.0---------
2019-09-21 22:00:00 8.7 5.1 6.5--- 7830.0wx-2wx--21023.6 975.2 -0.6---------
2019-09-21 21:00:00 9.9 4.5 6.8--- 6925.0wx-1wx--11023.5 975.3 -0.8---------
2019-09-21 20:00:00 11.2 4.2 7.3--- 6250.0wx-2wx--21023.7 975.7 -0.2---------
2019-09-21 19:00:00 12.8 4.7 8.3--- 5850.0wx-wx4wx--41023.5 975.8 -0.1---------
2019-09-21 18:00:00 12.2 5.4 8.3 18.0 7.1- 6350.0wx-wx3wx--31023.9 976.1 0.0- 0.012------
2019-09-21 17:00:00 13.1 6.2 9.1--- 6340.0wx-wx3wx--31023.6 975.9 -0.6---------
2019-09-21 16:00:00 16.6 6.1 10.8--- 5050.0wx-wx3wx--31023.0 975.9 -1.1---------
2019-09-21 15:00:00 17.7 6.8 11.6--- 4950.0wx-wx2wx--21023.0 976.1 -1.3---------
2019-09-21 14:00:00 17.6 6.1 11.2--- 4750.0wx-wx2wx---1023.5 976.5 -1.7---------
2019-09-21 13:00:00 17.5 6.4 11.3--- 4850.0wx-wx2wx--21024.0 977.0 -1.5---------
2019-09-21 12:00:00 16.8 5.4 10.6--- 4740.0wx-wx3wx--31024.5 977.4 -1.3- 0.06------
2019-09-21 11:00:00 16.0 5.3 10.1--- 4940.0wxwxwxwx2wx--21025.5 978.2 -0.9---------
2019-09-21 10:00:00 15.1 4.7 9.5--- 5040.0wxwxwxwx3wx--31026.0 978.5 -0.8---------
2019-09-21 09:00:00 13.9 3.6 8.4--- 5030.0wxwxwxwx3wx--31026.4 978.7 -0.4---------
2019-09-21 08:00:00 12.2 5.6 8.4--- 6415.0wx-wx1wx--11027.1 979.1 0.2---------
2019-09-21 07:00:00 9.6 5.2 7.0--- 748.0wx-wx2wx--21027.8 979.3 0.4---wx---
2019-09-21 06:00:00 7.1 4.7 5.6 8.7 3.3 3 858.0wx-wx1wx--11028.0 979.1 0.1- 0.012wx-- 6.3
2019-09-21 05:00:00 4.5 3.3 3.7--- 9220.0wx-wx2wx--21028.3 978.9 -0.1---------
2019-09-21 04:00:00 4.2 3.2 3.5--- 9320.0wx-wx2wx---1028.3 978.9 -0.1---------
2019-09-21 03:00:00 3.3 2.3 2.6--- 9310.0wx-2wx--21028.6 979.0 -0.3---------
2019-09-21 02:00:00 4.4 3.2 3.6--- 9210.0wx-2wx--21028.4 979.0 -0.6---------
2019-09-21 01:00:00 4.4 3.1 3.5--- 9110.0wx-2wx--21028.4 979.0 -0.7---------
2019-09-21 00:00:00 4.2 2.9 3.3--- 9110.0wx-wx2wx--21028.7 979.3 -0.4- 0.06------
1.7 ms

 

Print Friendly, PDF & Email